Kansas City, Missouri
Traffic Map
Current Weather Conditions
Kansas City, Missouri
Clear
Clear

Feels Like: -3°
Wind Chill: -3° Ceiling: Unl
Heat Index: Visibility: 10mi
Dew Point: -6° Wind: 9mph
Humidity: 59% Direction: 200° (SSW)
Pressure: 29.97in Gusts: 0mph
Raw Report DataKMKC 111154Z 20008KT 10SM CLR 01/M06 A2997 RMK AO2 SLP150 T00111061 10039 21006 56024
Traffic Incident Summary
Active as of:
Severity:
Category:
InformationThere was an issue retrieving the traffic information for this location. Please try a different location or try again shortly.
Advertisements